Time;durP1;ratioP1;P1;durP2;ratioP2;P2;SDS_P1;SDS_P2;PMS_P1;PMS_P2;Temp;Humidity;BMP_temperature;BMP_pressure;BME280_temperature;BME280_humidity;BME280_pressure;Samples;Min_cycle;Max_cycle;Signal;HPM_P1;HPM_P2
2022/06/03 00:01:23;;;;;;;2.25;1.35;;;13.00;99.90;;;;;;5050782;28;20102;-72
2022/06/03 00:04:07;;;;;;;3.53;1.40;;;13.10;99.90;;;;;;5050634;28;20025;-73
2022/06/03 00:07:31;;;;;;;2.25;1.30;;;13.20;99.90;;;;;;5050862;28;20063;-73
2022/06/03 00:10:03;;;;;;;3.70;1.20;;;13.50;99.90;;;;;;5010173;28;20033;-73
2022/06/03 00:12:51;;;;;;;4.57;1.75;;;13.50;99.90;;;;;;5010229;28;20577;-73
2022/06/03 00:15:24;;;;;;;2.20;0.98;;;13.70;99.90;;;;;;5043266;28;20053;-73
2022/06/03 00:18:04;;;;;;;2.20;0.80;;;13.90;99.90;;;;;;5051943;28;20029;-72
2022/06/03 00:20:53;;;;;;;2.22;1.02;;;14.20;99.90;;;;;;5050571;28;20397;-73
2022/06/03 00:23:33;;;;;;;1.52;0.70;;;14.10;99.90;;;;;;5053998;28;20025;-73
2022/06/03 00:26:25;;;;;;;3.55;1.83;;;14.30;99.90;;;;;;5055677;28;20025;-74
2022/06/03 00:29:06;;;;;;;3.63;1.05;;;14.20;99.90;;;;;;5054095;28;20021;-72
2022/06/03 00:32:02;;;;;;;1.58;0.70;;;14.30;99.90;;;;;;5054148;28;20334;-73
2022/06/03 00:34:38;;;;;;;2.45;1.13;;;14.30;99.90;;;;;;5055443;28;20025;-75
2022/06/03 00:37:31;;;;;;;2.15;1.02;;;14.20;99.90;;;;;;5055780;28;20098;-75
2022/06/03 00:40:28;;;;;;;2.00;0.63;;;14.30;99.90;;;;;;5053633;28;20089;-75
2022/06/03 00:43:10;;;;;;;2.22;0.65;;;14.40;99.90;;;;;;5053465;28;20086;-75
2022/06/03 00:45:48;;;;;;;3.95;0.77;;;14.30;99.90;;;;;;5053691;28;20448;-75
2022/06/03 00:48:40;;;;;;;0.95;0.50;;;14.40;99.90;;;;;;5055448;28;20028;-74
2022/06/03 00:51:26;;;;;;;4.78;0.70;;;14.50;99.90;;;;;;5053701;28;20094;-72
2022/06/03 00:54:11;;;;;;;1.40;0.63;;;14.60;99.90;;;;;;5055273;28;20052;-78
2022/06/03 00:57:12;;;;;;;7.90;0.90;;;14.60;99.90;;;;;;5053658;28;20017;-75
2022/06/03 01:00:00;;;;;;;2.85;0.60;;;14.60;99.90;;;;;;5053882;28;20025;-75
2022/06/03 01:02:30;;;;;;;2.25;1.02;;;14.80;99.90;;;;;;5055499;28;20025;-76
2022/06/03 01:05:08;;;;;;;1.27;0.80;;;15.20;99.90;;;;;;5053374;28;20021;-75
2022/06/03 01:07:42;;;;;;;1.27;0.60;;;15.70;99.90;;;;;;5054606;28;20108;-75
2022/06/03 01:10:12;;;;;;;4.97;2.60;;;15.80;99.90;;;;;;5054401;28;20100;-76
2022/06/03 01:12:53;;;;;;;1.25;0.60;;;16.00;99.90;;;;;;5053218;28;20031;-75
2022/06/03 01:15:36;;;;;;;1.77;0.52;;;16.00;99.90;;;;;;5053940;28;20045;-75
2022/06/03 01:18:19;;;;;;;1.58;0.50;;;16.00;99.90;;;;;;5069545;28;20052;-75
2022/06/03 01:21:13;;;;;;;1.73;0.60;;;16.00;99.90;;;;;;5052761;28;20029;-75
2022/06/03 01:24:08;;;;;;;1.83;0.63;;;16.40;99.90;;;;;;5054620;28;20406;-75
2022/06/03 01:26:41;;;;;;;1.58;0.50;;;16.30;99.90;;;;;;5069804;28;20031;-79
2022/06/03 01:29:09;;;;;;;1.67;0.50;;;16.50;99.90;;;;;;5052755;28;20025;-75
2022/06/03 01:31:54;;;;;;;1.77;0.47;;;17.00;99.90;;;;;;5052634;28;20017;-74
2022/06/03 01:34:32;;;;;;;1.85;0.50;;;16.90;99.90;;;;;;5054109;28;20025;-75
2022/06/03 01:37:19;;;;;;;1.45;0.50;;;16.60;99.90;;;;;;5052668;28;20106;-74
2022/06/03 01:39:58;;;;;;;1.30;0.40;;;16.60;99.90;;;;;;5052653;28;20021;-74
2022/06/03 01:42:36;;;;;;;2.17;0.70;;;16.80;99.90;;;;;;5053955;28;20428;-75
2022/06/03 01:45:03;;;;;;;1.27;0.43;;;16.80;99.90;;;;;;5053979;28;20025;-76
2022/06/03 01:48:11;;;;;;;2.15;0.70;;;16.70;99.90;;;;;;5053924;28;20099;-74
2022/06/03 01:50:47;;;;;;;2.33;0.50;;;16.70;99.90;;;;;;5031627;28;20030;-75
2022/06/03 01:53:42;;;;;;;2.05;0.63;;;16.50;99.90;;;;;;5032028;28;20029;-75
2022/06/03 01:56:36;;;;;;;1.25;0.30;;;16.60;99.90;;;;;;5048518;28;20104;-74
2022/06/03 01:59:21;;;;;;;1.88;0.40;;;16.80;99.90;;;;;;5052600;28;20112;-75
2022/06/03 02:02:22;;;;;;;1.23;0.32;;;17.00;99.90;;;;;;5052303;28;20025;-75
2022/06/03 02:05:02;;;;;;;1.30;0.52;;;17.30;99.90;;;;;;5053992;28;20074;-75
2022/06/03 02:07:41;;;;;;;3.85;1.33;;;17.30;99.90;;;;;;5052273;28;20024;-75
2022/06/03 02:10:26;;;;;;;2.03;0.57;;;17.20;99.90;;;;;;5053918;28;20069;-75
2022/06/03 02:13:23;;;;;;;1.88;0.30;;;17.30;99.90;;;;;;5053542;28;20079;-75
2022/06/03 02:16:12;;;;;;;1.00;0.40;;;17.30;99.90;;;;;;5053597;28;20060;-74
2022/06/03 02:19:06;;;;;;;1.23;0.60;;;16.90;99.90;;;;;;5053362;28;20366;-74
2022/06/03 02:21:53;;;;;;;1.05;0.30;;;16.80;99.90;;;;;;5053822;28;20020;-74
2022/06/03 02:24:35;;;;;;;0.43;0.40;;;16.80;99.90;;;;;;5052155;28;20115;-73
2022/06/03 02:27:46;;;;;;;3.72;0.65;;;16.70;99.90;;;;;;5052126;28;20098;-73
2022/06/03 02:30:44;;;;;;;1.08;0.43;;;16.50;99.90;;;;;;5053121;28;20029;-73
2022/06/03 02:33:11;;;;;;;2.33;0.60;;;16.40;99.90;;;;;;5051873;28;20044;-74
2022/06/03 02:35:52;;;;;;;0.85;0.40;;;16.40;99.90;;;;;;5051860;28;20036;-74
2022/06/03 02:38:38;;;;;;;1.55;0.40;;;16.30;99.90;;;;;;5053467;28;20059;-73
2022/06/03 02:41:14;;;;;;;1.67;0.73;;;16.30;99.90;;;;;;5053116;28;20396;-73
2022/06/03 02:44:23;;;;;;;1.35;0.50;;;16.20;99.90;;;;;;5053118;28;20384;-73
2022/06/03 02:46:56;;;;;;;1.45;0.60;;;16.30;99.90;;;;;;5051734;28;20477;-73
2022/06/03 02:49:29;;;;;;;2.15;0.57;;;16.20;99.90;;;;;;5053315;28;20092;-73
2022/06/03 02:52:05;;;;;;;1.92;0.50;;;16.10;99.90;;;;;;5053372;28;20071;-73
2022/06/03 02:54:54;;;;;;;2.03;0.65;;;16.00;99.90;;;;;;5053126;28;20025;-73
2022/06/03 02:57:59;;;;;;;0.85;0.45;;;15.90;99.90;;;;;;5053255;28;20045;-73
2022/06/03 03:00:29;;;;;;;1.25;0.40;;;15.80;99.90;;;;;;5052408;28;20041;-74
2022/06/03 03:03:25;;;;;;;1.45;0.70;;;15.80;99.90;;;;;;5051621;28;20029;-72
2022/06/03 03:06:10;;;;;;;1.42;0.60;;;15.90;99.90;;;;;;5052803;28;20052;-73
2022/06/03 03:09:02;;;;;;;1.02;0.50;;;16.00;99.90;;;;;;5052828;28;20031;-74
2022/06/03 03:11:58;;;;;;;1.52;0.70;;;16.10;99.90;;;;;;5052865;28;20072;-73
2022/06/03 03:14:59;;;;;;;1.42;0.65;;;16.00;99.90;;;;;;5052478;28;20059;-74
2022/06/03 03:17:53;;;;;;;3.00;1.05;;;16.10;99.90;;;;;;5051292;28;20099;-72
2022/06/03 03:20:46;;;;;;;1.13;0.45;;;16.20;99.90;;;;;;5052647;28;20131;-75
2022/06/03 03:23:50;;;;;;;1.05;0.50;;;16.10;99.90;;;;;;5051498;28;20064;-74
2022/06/03 03:26:42;;;;;;;1.25;0.60;;;16.00;99.90;;;;;;5051374;28;20123;-73
2022/06/03 03:29:38;;;;;;;2.70;0.80;;;16.10;99.90;;;;;;5052767;28;20141;-74
2022/06/03 03:32:19;;;;;;;2.83;0.70;;;16.10;99.90;;;;;;5051362;28;20440;-73
2022/06/03 03:35:20;;;;;;;1.80;0.60;;;16.10;99.90;;;;;;5053049;28;20484;-73
2022/06/03 03:38:03;;;;;;;1.73;0.63;;;16.10;99.90;;;;;;5052943;28;20525;-73
2022/06/03 03:41:01;;;;;;;2.65;0.50;;;16.10;99.90;;;;;;5052690;28;20024;-73
2022/06/03 03:43:31;;;;;;;3.25;0.70;;;16.00;99.90;;;;;;5052911;28;20043;-72
2022/06/03 03:46:17;;;;;;;1.77;0.70;;;16.10;99.90;;;;;;5051056;28;20116;-72
2022/06/03 03:49:23;;;;;;;1.33;0.55;;;16.00;99.90;;;;;;5052526;28;20095;-72
2022/06/03 03:52:22;;;;;;;1.73;0.70;;;16.00;99.90;;;;;;5067816;28;20025;-73
2022/06/03 03:55:07;;;;;;;1.95;0.60;;;16.00;99.90;;;;;;5051006;28;20036;-73
2022/06/03 03:58:06;;;;;;;1.70;0.90;;;15.90;99.90;;;;;;5055041;28;20036;-73
2022/06/03 04:01:30;;;;;;;2.05;0.60;;;15.80;99.90;;;;;;5047427;28;20037;-73
2022/06/03 04:04:14;;;;;;;1.23;0.30;;;15.80;99.90;;;;;;5034238;28;20029;-73
2022/06/03 04:06:42;;;;;;;0.80;0.50;;;15.90;99.90;;;;;;5056323;28;20392;-73
2022/06/03 04:09:27;;;;;;;1.85;0.40;;;16.00;99.90;;;;;;5054860;28;20028;-73
2022/06/03 04:12:20;;;;;;;0.57;0.43;;;15.90;99.90;;;;;;5056602;28;20064;-73
2022/06/03 04:15:12;;;;;;;1.67;0.47;;;15.80;99.90;;;;;;5054951;28;20516;-72
2022/06/03 04:18:15;;;;;;;0.93;0.50;;;15.70;99.90;;;;;;5056001;28;20119;-70
2022/06/03 04:20:42;;;;;;;1.35;0.50;;;15.50;99.90;;;;;;5055849;28;20025;-70
2022/06/03 04:23:28;;;;;;;0.50;0.20;;;15.50;99.90;;;;;;5055844;28;20028;-70
2022/06/03 04:26:33;;;;;;;1.75;0.50;;;15.50;99.90;;;;;;5055631;28;20021;-70
2022/06/03 04:29:39;;;;;;;1.05;0.47;;;15.40;99.90;;;;;;5054542;28;20029;-71
2022/06/03 04:32:12;;;;;;;0.93;0.38;;;15.50;99.90;;;;;;5055786;28;20385;-71
2022/06/03 04:35:20;;;;;;;1.92;0.40;;;15.60;99.90;;;;;;5055836;28;20104;-71
2022/06/03 04:38:06;;;;;;;1.45;0.40;;;15.60;99.90;;;;;;5047370;28;20033;-71
2022/06/03 04:41:09;;;;;;;0.50;0.32;;;15.60;99.90;;;;;;5054712;28;20029;-70
2022/06/03 04:44:04;;;;;;;1.92;0.65;;;15.60;99.90;;;;;;5055901;28;20075;-70
2022/06/03 04:46:57;;;;;;;2.83;0.40;;;15.50;99.90;;;;;;5055240;28;20032;-72
2022/06/03 04:50:00;;;;;;;2.13;0.40;;;15.40;99.90;;;;;;5055848;28;20029;-71
2022/06/03 04:52:52;;;;;;;1.42;0.50;;;15.30;99.90;;;;;;5053840;28;20053;-71
2022/06/03 04:55:50;;;;;;;0.95;0.40;;;15.10;99.90;;;;;;5055778;28;20057;-71
2022/06/03 04:58:38;;;;;;;0.80;0.40;;;15.00;99.90;;;;;;5055211;28;20025;-71
2022/06/03 05:01:26;;;;;;;0.40;0.40;;;14.80;99.90;;;;;;5055652;28;20480;-71
2022/06/03 05:04:30;;;;;;;1.67;0.60;;;14.70;99.90;;;;;;5055081;28;20040;-71
2022/06/03 05:07:25;;;;;;;1.15;0.50;;;14.80;99.90;;;;;;5053372;28;20043;-71
2022/06/03 05:10:28;;;;;;;1.95;0.40;;;14.80;99.90;;;;;;5054965;28;20013;-71
2022/06/03 05:13:17;;;;;;;2.47;0.50;;;14.80;99.90;;;;;;5054856;28;20017;-71
2022/06/03 05:16:05;;;;;;;0.70;0.32;;;14.80;99.90;;;;;;5053583;28;20408;-71
2022/06/03 05:18:51;;;;;;;2.58;0.57;;;14.70;99.90;;;;;;5054814;28;20055;-71
2022/06/03 05:21:45;;;;;;;1.42;0.40;;;14.50;99.90;;;;;;5054875;28;20035;-71
2022/06/03 05:24:40;;;;;;;1.52;0.30;;;14.50;99.90;;;;;;5054633;28;20021;-71
2022/06/03 05:27:31;;;;;;;0.57;0.35;;;14.40;99.90;;;;;;5054725;28;20100;-71
2022/06/03 05:30:16;;;;;;;2.10;0.30;;;14.30;99.90;;;;;;5053192;28;20021;-71
2022/06/03 05:33:20;;;;;;;1.20;0.38;;;14.20;99.90;;;;;;5054759;28;20050;-70
2022/06/03 05:35:53;;;;;;;1.67;0.40;;;14.20;99.90;;;;;;5054533;28;20025;-69
2022/06/03 05:38:45;;;;;;;0.93;0.32;;;14.10;99.90;;;;;;5052990;28;20037;-70
2022/06/03 05:44:57;;;;;;;0.70;0.30;;;14.00;99.90;;;;;;5054198;28;20075;-70
2022/06/03 05:47:26;;;;;;;;;;;13.90;99.90;;;;;;5054647;28;20451;-71
2022/06/03 05:50:03;;;;;;;1.17;0.30;;;13.90;99.90;;;;;;5054433;28;19905;-70
2022/06/03 05:52:47;;;;;;;2.13;0.60;;;13.90;99.90;;;;;;5052994;28;20108;-70
2022/06/03 05:55:44;;;;;;;1.63;0.45;;;13.90;99.90;;;;;;5054355;28;20051;-71
2022/06/03 05:58:34;;;;;;;1.65;0.52;;;13.90;99.90;;;;;;5054152;28;20032;-69
2022/06/03 06:01:34;;;;;;;2.70;2.38;;;13.80;99.90;;;;;;5049485;28;20059;-69
2022/06/03 06:04:15;;;;;;;7.55;4.65;;;13.80;99.90;;;;;;5053970;28;20028;-70
2022/06/03 06:07:13;;;;;;;3.05;0.60;;;13.70;99.90;;;;;;5053986;28;20018;-71
2022/06/03 06:10:02;;;;;;;8.23;5.90;;;13.70;99.90;;;;;;5053805;28;20021;-71
2022/06/03 06:12:46;;;;;;;2.83;1.92;;;13.70;99.90;;;;;;5054323;28;20096;-71
2022/06/03 06:15:33;;;;;;;2.60;1.75;;;13.60;99.90;;;;;;5053181;28;20053;-71
2022/06/03 06:18:22;;;;;;;4.32;3.83;;;13.60;99.90;;;;;;5052186;28;20045;-71
2022/06/03 06:21:13;;;;;;;11.02;8.15;;;13.60;99.90;;;;;;5052967;28;20039;-71
2022/06/03 06:23:45;;;;;;;2.00;1.50;;;13.50;99.90;;;;;;5053659;28;20021;-70
2022/06/03 06:26:28;;;;;;;8.73;6.90;;;13.50;99.90;;;;;;5053820;28;20031;-69
2022/06/03 06:29:28;;;;;;;9.43;7.53;;;13.40;99.90;;;;;;5053544;28;20064;-70
2022/06/03 06:32:25;;;;;;;4.32;3.85;;;13.40;99.90;;;;;;5053222;28;20017;-70
2022/06/03 06:35:36;;;;;;;7.40;6.53;;;13.30;99.90;;;;;;5053259;28;20029;-69
2022/06/03 06:38:11;;;;;;;2.70;1.35;;;13.30;99.90;;;;;;5053253;28;20024;-68
2022/06/03 06:40:47;;;;;;;1.20;0.63;;;13.30;99.90;;;;;;5051896;28;20078;-69
2022/06/03 06:43:44;;;;;;;1.45;0.50;;;13.20;99.90;;;;;;5053508;28;20051;-69
2022/06/03 06:46:27;;;;;;;2.20;0.52;;;13.20;99.90;;;;;;5052900;28;20029;-69
2022/06/03 06:49:03;;;;;;;1.10;0.43;;;13.20;99.90;;;;;;5053124;28;20017;-69
2022/06/03 06:52:04;;;;;;;1.70;0.55;;;13.10;99.90;;;;;;5053104;28;20031;-69
2022/06/03 06:54:55;;;;;;;1.15;0.40;;;13.00;99.90;;;;;;5068699;28;20059;-71
2022/06/03 06:57:45;;;;;;;2.15;0.50;;;12.90;99.90;;;;;;5052945;28;20147;-71
2022/06/03 07:00:19;;;;;;;0.95;0.40;;;12.70;99.90;;;;;;5053378;28;20016;-71
2022/06/03 07:03:05;;;;;;;2.28;0.65;;;12.60;99.90;;;;;;5053631;28;20048;-72
2022/06/03 07:05:50;;;;;;;1.23;0.40;;;12.40;99.90;;;;;;5053588;28;20033;-72
2022/06/03 07:08:22;;;;;;;2.20;0.80;;;12.30;99.90;;;;;;5053422;28;20021;-70
2022/06/03 07:11:10;;;;;;;0.95;0.55;;;12.20;99.90;;;;;;5053057;28;20380;-71
2022/06/03 07:13:42;;;;;;;0.60;0.30;;;12.10;99.90;;;;;;5052827;28;20029;-71
2022/06/03 07:16:14;;;;;;;1.10;0.50;;;12.10;99.90;;;;;;5053232;28;20016;-71
2022/06/03 07:22:28;;;;;;;1.20;0.47;;;12.00;99.90;;;;;;5053001;28;20102;-71
2022/06/03 07:25:19;;;;;;;0.50;0.50;;;12.10;99.90;;;;;;5068319;28;20553;-72
2022/06/03 07:27:54;;;;;;;2.97;0.77;;;12.00;99.90;;;;;;5053373;28;20014;-73
2022/06/03 07:30:27;;;;;;;1.17;0.40;;;12.00;99.90;;;;;;5053583;28;20017;-74
2022/06/03 07:33:15;;;;;;;1.10;0.68;;;12.00;99.90;;;;;;5057165;28;20022;-73
2022/06/03 07:35:46;;;;;;;1.10;0.50;;;11.90;99.90;;;;;;5055430;28;20107;-74
2022/06/03 07:38:20;;;;;;;;;;;11.90;99.90;;;;;;5057795;28;20028;-74
2022/06/03 07:40:56;;;;;;;1.17;0.73;;;11.90;99.90;;;;;;5056968;28;19909;-73
2022/06/03 07:43:45;;;;;;;2.22;0.70;;;11.90;99.90;;;;;;5057041;28;20025;-73
2022/06/03 07:46:38;;;;;;;1.15;0.60;;;11.80;99.90;;;;;;5056546;28;20559;-74
2022/06/03 07:49:06;;;;;;;0.50;0.40;;;11.70;99.90;;;;;;5056600;28;20021;-75
2022/06/03 07:51:44;;;;;;;1.25;0.40;;;11.70;99.90;;;;;;5056677;28;20032;-74
2022/06/03 07:54:25;;;;;;;0.32;0.32;;;11.70;99.90;;;;;;5071717;28;20022;-75
2022/06/03 07:57:04;;;;;;;0.45;0.40;;;11.60;99.90;;;;;;5056542;28;20025;-74
2022/06/03 07:59:35;;;;;;;3.30;0.40;;;11.60;99.90;;;;;;5054962;28;20017;-74
2022/06/03 08:02:23;;;;;;;1.85;0.45;;;11.50;99.90;;;;;;5055023;28;20056;-74
2022/06/03 08:05:10;;;;;;;1.30;0.60;;;11.60;99.90;;;;;;5054823;28;20112;-74
2022/06/03 08:13:19;;;;;;;1.33;0.80;;;11.50;99.90;;;;;;5056013;28;20388;-73
2022/06/03 08:16:05;;;;;;;2.45;0.80;;;11.50;99.90;;;;;;5056212;28;20107;-73
2022/06/03 08:18:42;;;;;;;1.80;0.60;;;11.40;99.90;;;;;;5055980;28;20028;-73
2022/06/03 08:21:55;;;;;;;0.85;0.60;;;11.50;99.90;;;;;;5071171;28;20124;-76
2022/06/03 08:24:34;;;;;;;1.15;0.50;;;11.50;99.90;;;;;;5053766;28;20095;-75
2022/06/03 08:27:14;;;;;;;1.33;0.70;;;11.50;99.90;;;;;;5071155;28;20017;-74
2022/06/03 08:29:45;;;;;;;1.83;0.88;;;11.40;99.90;;;;;;5054500;28;20384;-76
2022/06/03 08:32:26;;;;;;;1.30;0.68;;;11.50;99.90;;;;;;5055775;28;20017;-76
2022/06/03 08:34:59;;;;;;;0.82;0.50;;;11.50;99.90;;;;;;5054402;28;20033;-76
2022/06/03 08:37:33;;;;;;;0.80;0.50;;;11.50;99.90;;;;;;5055771;28;20044;-76
2022/06/03 08:40:09;;;;;;;1.08;0.50;;;11.40;99.90;;;;;;5055751;28;20028;-76
2022/06/03 08:43:01;;;;;;;0.88;0.47;;;11.50;99.90;;;;;;5053639;28;20095;-76
2022/06/03 08:45:43;;;;;;;1.67;0.55;;;11.50;99.90;;;;;;5055046;28;20112;-76
2022/06/03 08:48:18;;;;;;;1.85;0.70;;;11.50;99.90;;;;;;5055991;28;20025;-77
2022/06/03 08:50:59;;;;;;;1.80;0.63;;;11.50;99.90;;;;;;5055519;28;20020;-75
2022/06/03 08:53:41;;;;;;;1.13;0.70;;;11.50;99.90;;;;;;5055423;28;20021;-76
2022/06/03 08:56:32;;;;;;;1.85;0.65;;;11.40;99.90;;;;;;5053957;28;20029;-75
2022/06/03 08:59:12;;;;;;;1.27;0.57;;;11.40;99.90;;;;;;5055195;28;20117;-75
2022/06/03 09:01:53;;;;;;;1.00;0.70;;;11.40;99.90;;;;;;5055231;28;20021;-76
2022/06/03 09:04:20;;;;;;;2.25;1.08;;;11.40;99.90;;;;;;5055330;28;20037;-76
2022/06/03 09:06:51;;;;;;;2.00;1.15;;;11.50;99.90;;;;;;5055259;28;20067;-74
2022/06/03 09:09:43;;;;;;;1.60;0.80;;;11.50;99.90;;;;;;5053935;28;20025;-74
2022/06/03 09:12:13;;;;;;;1.23;0.90;;;11.50;99.90;;;;;;5055365;28;20389;-74
2022/06/03 09:14:44;;;;;;;2.25;1.00;;;11.50;99.90;;;;;;5054965;28;20497;-74
2022/06/03 09:17:43;;;;;;;1.08;0.70;;;11.50;99.90;;;;;;5054871;28;20032;-75
2022/06/03 09:20:21;;;;;;;1.05;0.70;;;11.50;99.90;;;;;;5052802;28;20120;-75
2022/06/03 09:22:51;;;;;;;4.20;0.90;;;11.40;99.90;;;;;;5054857;28;20021;-75
2022/06/03 09:25:19;;;;;;;2.13;0.60;;;11.40;99.90;;;;;;5054594;28;20029;-76
2022/06/03 09:27:48;;;;;;;1.50;0.57;;;11.30;99.90;;;;;;5054770;28;20032;-76
2022/06/03 09:30:37;;;;;;;2.88;0.80;;;11.30;99.90;;;;;;5054671;28;20020;-76
2022/06/03 09:33:07;;;;;;;1.67;0.82;;;11.30;99.90;;;;;;5054728;28;20381;-76
2022/06/03 09:35:40;;;;;;;2.33;0.70;;;11.40;99.90;;;;;;5053252;28;20112;-75
2022/06/03 09:38:09;;;;;;;1.58;0.60;;;11.30;99.90;;;;;;5054972;28;20052;-76
2022/06/03 09:40:46;;;;;;;0.85;0.60;;;11.30;99.90;;;;;;5054896;28;20017;-75
2022/06/03 09:43:39;;;;;;;0.73;0.52;;;11.30;99.90;;;;;;5054621;28;20491;-75
2022/06/03 09:46:13;;;;;;;1.05;0.57;;;11.20;99.90;;;;;;5052889;28;20033;-74
2022/06/03 09:48:42;;;;;;;2.03;0.60;;;11.20;99.90;;;;;;5054597;28;20040;-74
2022/06/03 09:51:21;;;;;;;1.80;0.70;;;11.10;99.90;;;;;;5054435;28;20023;-74
2022/06/03 09:53:49;;;;;;;1.95;0.68;;;11.00;99.90;;;;;;5052391;28;20388;-75
2022/06/03 09:56:30;;;;;;;1.55;0.57;;;10.90;99.90;;;;;;5054769;28;20021;-75
2022/06/03 09:59:03;;;;;;;1.08;0.40;;;10.80;99.90;;;;;;5054397;28;20033;-75
2022/06/03 10:01:31;;;;;;;1.75;0.70;;;10.70;99.90;;;;;;5054118;28;20025;-75
2022/06/03 10:04:06;;;;;;;2.55;0.88;;;10.80;99.90;;;;;;5069286;28;20029;-75
2022/06/03 10:06:43;;;;;;;1.30;0.65;;;10.70;99.90;;;;;;5054384;28;20025;-75
2022/06/03 10:18:05;;;;;;;1.70;0.60;;;10.70;99.90;;;;;;5054481;28;20056;-75
2022/06/03 10:20:35;;;;;;;1.25;0.70;;;10.70;99.90;;;;;;5054407;28;20024;-75
2022/06/03 10:23:06;;;;;;;1.77;0.60;;;10.70;99.90;;;;;;5054144;28;20017;-75
2022/06/03 10:25:35;;;;;;;1.02;0.63;;;10.70;99.90;;;;;;5053501;28;20036;-75
2022/06/03 10:28:09;;;;;;;1.40;0.60;;;10.80;99.90;;;;;;5053601;28;20109;-75
2022/06/03 10:30:41;;;;;;;0.80;0.65;;;10.70;99.90;;;;;;5053713;28;20021;-75
2022/06/03 10:33:28;;;;;;;1.60;0.50;;;10.80;99.90;;;;;;5053895;28;20028;-75
2022/06/03 10:35:59;;;;;;;2.20;0.70;;;10.80;99.90;;;;;;5053787;28;20021;-75
2022/06/03 10:38:29;;;;;;;1.27;1.02;;;10.70;99.90;;;;;;5053697;28;20028;-75
2022/06/03 10:40:56;;;;;;;;;;;10.70;99.90;;;;;;5053944;28;20393;-74
2022/06/03 10:43:32;;;;;;;2.28;1.00;;;10.70;99.90;;;;;;5052109;28;19908;-76
2022/06/03 10:46:15;;;;;;;2.25;1.10;;;10.70;99.90;;;;;;5053568;28;20044;-76
2022/06/03 10:48:44;;;;;;;1.17;0.60;;;10.70;99.90;;;;;;5053441;28;20040;-75
2022/06/03 10:51:14;;;;;;;1.05;0.90;;;10.70;99.90;;;;;;5053558;28;20109;-76
2022/06/03 11:02:16;;;;;;;0.68;0.30;;;10.60;99.90;;;;;;5053822;28;20081;-76
2022/06/03 11:04:43;;;;;;;1.65;0.50;;;10.60;99.90;;;;;;5053001;28;20100;-76
2022/06/03 11:07:30;;;;;;;2.25;1.08;;;10.60;99.90;;;;;;5034958;28;20059;-75
2022/06/03 11:10:00;;;;;;;1.73;0.65;;;10.60;99.90;;;;;;5053101;28;20024;-76
2022/06/03 11:12:29;;;;;;;2.83;1.23;;;10.70;99.90;;;;;;5051627;28;20162;-76
2022/06/03 11:14:57;;;;;;;1.30;0.50;;;10.60;99.90;;;;;;5053046;28;20049;-76
2022/06/03 11:17:36;;;;;;;1.60;0.63;;;10.70;99.90;;;;;;5052698;28;20072;-78
2022/06/03 11:20:30;;;;;;;1.30;0.60;;;10.70;99.90;;;;;;5052829;28;20104;-75
2022/06/03 11:22:58;;;;;;;0.90;0.55;;;10.70;99.90;;;;;;5052739;28;20032;-76
2022/06/03 11:25:31;;;;;;;3.63;0.77;;;10.80;99.90;;;;;;5052964;28;20025;-76
2022/06/03 11:28:03;;;;;;;1.08;0.60;;;10.70;99.90;;;;;;5053060;28;20022;-76
2022/06/03 11:30:37;;;;;;;2.10;0.80;;;10.80;99.90;;;;;;5051673;28;20114;-77
2022/06/03 11:33:29;;;;;;;1.52;0.63;;;10.70;99.90;;;;;;5053414;28;20099;-76
2022/06/03 11:36:32;;;;;;;3.65;0.75;;;10.80;99.90;;;;;;5052126;28;20511;-75
2022/06/03 11:39:20;;;;;;;1.83;0.73;;;10.80;99.90;;;;;;5052278;28;20539;-75
2022/06/03 11:42:00;;;;;;;1.63;0.60;;;10.80;99.90;;;;;;5051523;28;20178;-75
2022/06/03 11:44:39;;;;;;;1.70;0.57;;;10.90;99.90;;;;;;5053246;28;20048;-74
2022/06/03 11:47:21;;;;;;;1.15;0.55;;;10.90;99.90;;;;;;5052646;28;20104;-75
2022/06/03 11:49:49;;;;;;;0.85;0.40;;;11.00;99.90;;;;;;5051366;28;20021;-75
2022/06/03 11:52:17;;;;;;;1.38;0.60;;;11.00;99.90;;;;;;5068043;28;20017;-75
2022/06/03 11:54:45;;;;;;;1.63;0.70;;;11.00;99.90;;;;;;5052571;28;20501;-75
2022/06/03 11:57:13;;;;;;;0.70;0.45;;;11.00;99.90;;;;;;5052505;28;20465;-73
2022/06/03 11:59:45;;;;;;;1.75;0.63;;;11.00;99.90;;;;;;5052623;28;20064;-76
2022/06/03 12:02:21;;;;;;;1.25;0.57;;;11.00;99.90;;;;;;5052516;28;20021;-76
2022/06/03 12:05:24;;;;;;;1.33;0.50;;;11.00;99.90;;;;;;5051241;28;20036;-75
2022/06/03 12:08:14;;;;;;;1.25;0.50;;;11.00;99.90;;;;;;5050106;28;20116;-79
2022/06/03 12:11:06;;;;;;;0.88;0.50;;;11.00;99.90;;;;;;5052742;28;20017;-79
2022/06/03 12:13:34;;;;;;;0.77;0.43;;;11.00;99.90;;;;;;5050928;28;20037;-78
2022/06/03 12:16:10;;;;;;;1.10;0.80;;;11.00;99.90;;;;;;5052740;28;20032;-78
2022/06/03 12:18:38;;;;;;;1.08;0.50;;;11.00;99.90;;;;;;5054979;28;20036;-78
2022/06/03 12:21:38;;;;;;;1.95;0.85;;;11.00;99.90;;;;;;5054778;28;20021;-76
2022/06/03 12:24:41;;;;;;;1.52;0.65;;;11.00;99.90;;;;;;5056027;28;20044;-77
2022/06/03 12:27:19;;;;;;;1.80;0.50;;;11.00;99.90;;;;;;5033357;28;20030;-79
2022/06/03 12:29:59;;;;;;;0.52;0.40;;;10.90;99.90;;;;;;5053553;28;20057;-78
2022/06/03 12:32:29;;;;;;;1.75;0.40;;;11.00;99.90;;;;;;5054519;28;20112;-78
2022/06/03 12:35:35;;;;;;;2.83;0.70;;;10.90;99.90;;;;;;5054427;28;20033;-78
2022/06/03 12:38:20;;;;;;;1.63;0.80;;;10.90;99.90;;;;;;5040206;28;20078;-77
2022/06/03 12:40:50;;;;;;;1.08;0.50;;;10.90;99.90;;;;;;5055662;28;20055;-77
2022/06/03 12:43:32;;;;;;;0.70;0.47;;;10.90;99.90;;;;;;5055688;28;20033;-78
2022/06/03 12:46:06;;;;;;;1.17;0.50;;;10.90;99.90;;;;;;5055532;28;20040;-77
2022/06/03 12:48:54;;;;;;;3.42;1.48;;;10.90;99.90;;;;;;5055637;28;20104;-77
2022/06/03 12:51:33;;;;;;;2.28;0.70;;;10.90;99.90;;;;;;5054116;28;20017;-76
2022/06/03 12:54:16;;;;;;;0.80;0.50;;;10.90;99.90;;;;;;5056101;28;20473;-76
2022/06/03 12:57:20;;;;;;;1.50;0.93;;;10.80;99.90;;;;;;5055239;28;20422;-75
2022/06/03 13:00:06;;;;;;;2.13;0.70;;;10.90;99.90;;;;;;5054924;28;20037;-75
2022/06/03 13:02:37;;;;;;;1.58;0.68;;;10.90;99.90;;;;;;5055217;28;20083;-75
2022/06/03 13:05:23;;;;;;;2.00;1.00;;;10.90;99.90;;;;;;5055034;28;20117;-75
2022/06/03 13:08:30;;;;;;;1.67;0.60;;;10.90;99.90;;;;;;5053850;28;20017;-75
2022/06/03 13:11:10;;;;;;;1.85;0.75;;;10.90;99.90;;;;;;5054854;28;20100;-75
2022/06/03 13:13:48;;;;;;;1.08;0.60;;;10.90;99.90;;;;;;5054835;28;20041;-75
2022/06/03 13:16:28;;;;;;;1.38;1.00;;;10.90;99.90;;;;;;5055048;28;20029;-75
2022/06/03 13:18:58;;;;;;;1.63;0.73;;;10.90;99.90;;;;;;5055193;28;20094;-75
2022/06/03 13:21:28;;;;;;;1.63;0.85;;;10.90;99.90;;;;;;5054878;28;20143;-75
2022/06/03 13:23:57;;;;;;;1.17;0.80;;;10.90;99.90;;;;;;5053587;28;20025;-75
2022/06/03 13:26:27;;;;;;;1.75;0.70;;;10.80;99.90;;;;;;5054690;28;20021;-76
2022/06/03 13:29:07;;;;;;;2.00;0.90;;;10.80;99.90;;;;;;5054495;28;20021;-76
2022/06/03 13:32:02;;;;;;;1.42;0.68;;;10.80;99.90;;;;;;5054685;28;20532;-75
2022/06/03 13:34:40;;;;;;;1.75;0.88;;;10.80;99.90;;;;;;5053247;28;20163;-75
2022/06/03 13:37:45;;;;;;;2.35;0.93;;;10.80;99.90;;;;;;5054766;28;20476;-75
2022/06/03 13:40:27;;;;;;;1.25;0.80;;;10.80;99.90;;;;;;5053346;28;20032;-75
2022/06/03 13:43:00;;;;;;;2.88;1.00;;;10.70;99.90;;;;;;5053226;28;20048;-75
2022/06/03 13:45:43;;;;;;;2.42;0.70;;;10.70;99.90;;;;;;5054410;28;20032;-75
2022/06/03 13:48:34;;;;;;;1.30;0.70;;;10.70;99.90;;;;;;5054738;28;20027;-76
2022/06/03 13:51:48;;;;;;;1.55;0.70;;;10.70;99.90;;;;;;5054606;28;20394;-75
2022/06/03 13:54:21;;;;;;;1.35;0.82;;;10.70;99.90;;;;;;5032883;28;20371;-76
2022/06/03 13:57:04;;;;;;;1.92;0.85;;;10.70;99.90;;;;;;5052751;28;20029;-75
2022/06/03 13:59:40;;;;;;;1.00;0.68;;;10.80;99.90;;;;;;5054179;28;20017;-75
2022/06/03 14:02:18;;;;;;;2.28;0.82;;;10.70;99.90;;;;;;5054158;28;20108;-75
2022/06/03 14:04:57;;;;;;;1.73;1.00;;;10.70;99.90;;;;;;5054125;28;20021;-75
2022/06/03 14:07:32;;;;;;;1.50;0.70;;;10.70;99.90;;;;;;5054072;28;20074;-75
2022/06/03 14:10:11;;;;;;;1.33;0.90;;;10.70;99.90;;;;;;5054260;28;20021;-75
2022/06/03 14:13:03;;;;;;;1.60;0.93;;;10.70;99.90;;;;;;5054286;28;20017;-76
2022/06/03 14:16:03;;;;;;;0.95;0.50;;;10.70;99.90;;;;;;5051310;28;20401;-76
2022/06/03 14:18:47;;;;;;;1.45;0.52;;;10.70;99.90;;;;;;5054161;28;20397;-77
2022/06/03 14:21:39;;;;;;;1.25;0.60;;;10.70;99.90;;;;;;5053039;28;20498;-76
2022/06/03 14:24:28;;;;;;;1.15;0.60;;;10.70;99.90;;;;;;5052812;28;20021;-77
2022/06/03 14:27:34;;;;;;;2.15;1.13;;;10.60;99.90;;;;;;5053743;28;20414;-77
2022/06/03 14:30:30;;;;;;;1.88;0.70;;;10.60;99.90;;;;;;5052666;28;20037;-77
2022/06/03 14:32:59;;;;;;;1.67;0.60;;;10.60;99.90;;;;;;5053773;28;20025;-77
2022/06/03 14:35:35;;;;;;;2.38;0.95;;;10.50;99.90;;;;;;5052389;28;20037;-76
2022/06/03 14:38:08;;;;;;;1.10;0.60;;;10.60;99.90;;;;;;5053851;28;20496;-75
2022/06/03 14:40:39;;;;;;;1.38;0.50;;;10.60;99.90;;;;;;5051775;28;20049;-77
2022/06/03 14:43:09;;;;;;;1.48;0.70;;;10.50;99.90;;;;;;5053569;28;20017;-76